sensor_id;sensor_type;location;lat;lon;timestamp;pressure;altitude;pressure_sealevel;temperature;humidity
77572;BME280;67214;47.454;18.966;2023-03-04T00:00:30;100309.35;;;2.43;60.70
77572;BME280;67214;47.454;18.966;2023-03-04T00:02:58;100318.31;;;2.48;60.24
77572;BME280;67214;47.454;18.966;2023-03-04T00:05:25;100314.64;;;2.52;59.89
77572;BME280;67214;47.454;18.966;2023-03-04T00:07:53;100317.71;;;2.51;59.68
77572;BME280;67214;47.454;18.966;2023-03-04T00:10:20;100313.38;;;2.60;59.40
77572;BME280;67214;47.454;18.966;2023-03-04T00:12:48;100316.80;;;2.42;60.56
77572;BME280;67214;47.454;18.966;2023-03-04T00:15:15;100319.25;;;2.16;61.51
77572;BME280;67214;47.454;18.966;2023-03-04T00:17:43;100313.52;;;2.18;61.03
77572;BME280;67214;47.454;18.966;2023-03-04T00:20:12;100314.02;;;2.16;60.99
77572;BME280;67214;47.454;18.966;2023-03-04T00:22:42;100313.66;;;2.15;61.26
77572;BME280;67214;47.454;18.966;2023-03-04T00:25:10;100315.69;;;1.99;61.84
77572;BME280;67214;47.454;18.966;2023-03-04T00:27:37;100317.52;;;1.86;62.21
77572;BME280;67214;47.454;18.966;2023-03-04T00:30:06;100312.62;;;1.99;61.45
77572;BME280;67214;47.454;18.966;2023-03-04T00:32:34;100311.82;;;1.97;61.41
77572;BME280;67214;47.454;18.966;2023-03-04T00:35:01;100317.19;;;1.94;61.25
77572;BME280;67214;47.454;18.966;2023-03-04T00:37:28;100317.57;;;1.85;61.70
77572;BME280;67214;47.454;18.966;2023-03-04T00:39:56;100314.80;;;1.68;62.05
77572;BME280;67214;47.454;18.966;2023-03-04T00:42:23;100318.78;;;1.46;62.84
77572;BME280;67214;47.454;18.966;2023-03-04T00:44:51;100323.84;;;1.39;63.01
77572;BME280;67214;47.454;18.966;2023-03-04T00:47:18;100317.71;;;1.40;62.51
77572;BME280;67214;47.454;18.966;2023-03-04T00:49:46;100296.36;;;1.30;63.57
77572;BME280;67214;47.454;18.966;2023-03-04T00:52:13;100311.67;;;1.28;63.53
77572;BME280;67214;47.454;18.966;2023-03-04T00:54:41;100308.03;;;1.32;63.27
77572;BME280;67214;47.454;18.966;2023-03-04T00:57:08;100301.09;;;1.21;63.04
77572;BME280;67214;47.454;18.966;2023-03-04T00:59:35;100303.16;;;1.23;62.84
77572;BME280;67214;47.454;18.966;2023-03-04T01:02:03;100296.62;;;1.13;63.04
77572;BME280;67214;47.454;18.966;2023-03-04T01:04:30;100297.03;;;1.24;62.74
77572;BME280;67214;47.454;18.966;2023-03-04T01:06:58;100289.97;;;1.16;62.88
77572;BME280;67214;47.454;18.966;2023-03-04T01:09:25;100286.48;;;1.05;63.02
77572;BME280;67214;47.454;18.966;2023-03-04T01:11:53;100282.94;;;1.18;62.46
77572;BME280;67214;47.454;18.966;2023-03-04T01:14:21;100274.16;;;1.19;61.70
77572;BME280;67214;47.454;18.966;2023-03-04T01:16:49;100278.75;;;1.02;62.12
77572;BME280;67214;47.454;18.966;2023-03-04T01:19:16;100272.62;;;1.03;61.75
77572;BME280;67214;47.454;18.966;2023-03-04T01:21:44;100259.26;;;1.11;61.23
77572;BME280;67214;47.454;18.966;2023-03-04T01:24:12;100277.34;;;1.37;59.34
77572;BME280;67214;47.454;18.966;2023-03-04T01:26:39;100276.41;;;1.28;59.92
77572;BME280;67214;47.454;18.966;2023-03-04T01:29:07;100269.43;;;1.07;60.18
77572;BME280;67214;47.454;18.966;2023-03-04T01:31:34;100271.09;;;1.09;59.79
77572;BME280;67214;47.454;18.966;2023-03-04T01:34:02;100268.34;;;1.12;58.78
77572;BME280;67214;47.454;18.966;2023-03-04T01:36:29;100266.36;;;1.39;57.72
77572;BME280;67214;47.454;18.966;2023-03-04T01:38:57;100263.21;;;1.21;58.78
77572;BME280;67214;47.454;18.966;2023-03-04T01:41:25;100258.35;;;1.12;59.04
77572;BME280;67214;47.454;18.966;2023-03-04T01:43:57;100258.70;;;1.24;57.67
77572;BME280;67214;47.454;18.966;2023-03-04T01:46:28;100248.20;;;1.36;57.25
77572;BME280;67214;47.454;18.966;2023-03-04T01:48:56;100248.49;;;1.08;58.79
77572;BME280;67214;47.454;18.966;2023-03-04T01:51:24;100250.90;;;1.45;56.02
77572;BME280;67214;47.454;18.966;2023-03-04T01:53:52;100239.19;;;2.97;48.07
77572;BME280;67214;47.454;18.966;2023-03-04T01:56:28;100234.98;;;3.20;48.73
77572;BME280;67214;47.454;18.966;2023-03-04T01:59:20;100239.36;;;3.20;47.63
77572;BME280;67214;47.454;18.966;2023-03-04T02:01:56;100237.47;;;3.58;46.00
77572;BME280;67214;47.454;18.966;2023-03-04T02:04:21;100219.06;;;3.84;45.40
77572;BME280;67214;47.454;18.966;2023-03-04T02:06:49;100222.25;;;3.82;45.45
77572;BME280;67214;47.454;18.966;2023-03-04T02:09:18;100223.16;;;3.89;44.86
77572;BME280;67214;47.454;18.966;2023-03-04T02:11:47;100225.95;;;3.86;44.88
77572;BME280;67214;47.454;18.966;2023-03-04T02:14:16;100220.14;;;3.88;44.90
77572;BME280;67214;47.454;18.966;2023-03-04T02:16:44;100209.13;;;3.82;44.88
77572;BME280;67214;47.454;18.966;2023-03-04T02:19:39;100209.30;;;3.79;44.34
77572;BME280;67214;47.454;18.966;2023-03-04T02:22:03;100208.91;;;3.78;44.91
77572;BME280;67214;47.454;18.966;2023-03-04T02:24:38;100208.66;;;3.91;43.87
77572;BME280;67214;47.454;18.966;2023-03-04T02:27:04;100205.02;;;3.93;44.23
77572;BME280;67214;47.454;18.966;2023-03-04T02:29:32;100193.77;;;3.91;43.92
77572;BME280;67214;47.454;18.966;2023-03-04T02:32:00;100196.00;;;3.90;44.17
77572;BME280;67214;47.454;18.966;2023-03-04T02:34:30;100190.55;;;3.78;44.86
77572;BME280;67214;47.454;18.966;2023-03-04T02:36:58;100185.77;;;3.68;44.54
77572;BME280;67214;47.454;18.966;2023-03-04T02:39:36;100183.84;;;3.63;45.02
77572;BME280;67214;47.454;18.966;2023-03-04T02:42:03;100189.03;;;3.56;45.34
77572;BME280;67214;47.454;18.966;2023-03-04T02:44:33;100176.55;;;3.53;45.42
77572;BME280;67214;47.454;18.966;2023-03-04T02:47:02;100186.25;;;3.51;45.45
77572;BME280;67214;47.454;18.966;2023-03-04T02:49:31;100180.70;;;3.48;45.20
77572;BME280;67214;47.454;18.966;2023-03-04T02:54:29;100175.63;;;3.37;46.18
77572;BME280;67214;47.454;18.966;2023-03-04T02:56:59;100163.38;;;3.28;46.16
77572;BME280;67214;47.454;18.966;2023-03-04T02:59:27;100174.16;;;3.40;45.79
77572;BME280;67214;47.454;18.966;2023-03-04T03:01:55;100168.84;;;3.50;45.52
77572;BME280;67214;47.454;18.966;2023-03-04T03:04:23;100183.56;;;3.35;46.37
77572;BME280;67214;47.454;18.966;2023-03-04T03:06:51;100186.48;;;3.03;49.21
77572;BME280;67214;47.454;18.966;2023-03-04T03:09:19;100177.84;;;2.84;49.48
77572;BME280;67214;47.454;18.966;2023-03-04T03:11:46;100171.86;;;2.45;52.22
77572;BME280;67214;47.454;18.966;2023-03-04T03:14:14;100182.22;;;2.10;53.35
77572;BME280;67214;47.454;18.966;2023-03-04T03:16:41;100179.66;;;1.80;54.72
77572;BME280;67214;47.454;18.966;2023-03-04T03:19:09;100183.75;;;1.67;54.58
77572;BME280;67214;47.454;18.966;2023-03-04T03:21:36;100180.09;;;1.71;52.49
77572;BME280;67214;47.454;18.966;2023-03-04T03:24:04;100171.09;;;2.15;50.83
77572;BME280;67214;47.454;18.966;2023-03-04T03:26:31;100171.44;;;2.08;52.81
77572;BME280;67214;47.454;18.966;2023-03-04T03:28:59;100176.98;;;1.71;54.59
77572;BME280;67214;47.454;18.966;2023-03-04T03:31:26;100172.06;;;1.45;55.43
77572;BME280;67214;47.454;18.966;2023-03-04T03:33:54;100179.05;;;1.24;55.68
77572;BME280;67214;47.454;18.966;2023-03-04T03:36:21;100178.25;;;1.12;56.15
77572;BME280;67214;47.454;18.966;2023-03-04T03:38:50;100173.27;;;1.06;55.80
77572;BME280;67214;47.454;18.966;2023-03-04T03:41:17;100176.55;;;1.11;55.87
77572;BME280;67214;47.454;18.966;2023-03-04T03:43:45;100174.39;;;1.11;55.81
77572;BME280;67214;47.454;18.966;2023-03-04T03:46:12;100165.12;;;1.04;56.34
77572;BME280;67214;47.454;18.966;2023-03-04T03:48:40;100161.06;;;1.07;55.80
77572;BME280;67214;47.454;18.966;2023-03-04T03:51:07;100166.23;;;1.08;56.05
77572;BME280;67214;47.454;18.966;2023-03-04T03:53:36;100164.34;;;1.12;56.17
77572;BME280;67214;47.454;18.966;2023-03-04T03:56:04;100165.67;;;1.22;56.11
77572;BME280;67214;47.454;18.966;2023-03-04T03:58:31;100162.26;;;1.40;56.22
77572;BME280;67214;47.454;18.966;2023-03-04T04:00:59;100163.70;;;1.86;55.55
77572;BME280;67214;47.454;18.966;2023-03-04T04:03:26;100162.84;;;2.14;55.34
77572;BME280;67214;47.454;18.966;2023-03-04T04:05:54;100155.67;;;2.37;55.11
77572;BME280;67214;47.454;18.966;2023-03-04T04:08:22;100157.28;;;2.58;54.94
77572;BME280;67214;47.454;18.966;2023-03-04T04:10:49;100160.23;;;2.60;55.09
77572;BME280;67214;47.454;18.966;2023-03-04T04:13:17;100153.31;;;2.68;55.08
77572;BME280;67214;47.454;18.966;2023-03-04T04:15:44;100138.30;;;2.71;55.05
77572;BME280;67214;47.454;18.966;2023-03-04T04:18:12;100147.53;;;2.70;55.40
77572;BME280;67214;47.454;18.966;2023-03-04T04:20:39;100152.52;;;2.66;55.65
77572;BME280;67214;47.454;18.966;2023-03-04T04:23:07;100145.37;;;2.61;56.01
77572;BME280;67214;47.454;18.966;2023-03-04T04:25:34;100145.46;;;2.68;56.01
77572;BME280;67214;47.454;18.966;2023-03-04T04:28:02;100141.77;;;2.72;56.13
77572;BME280;67214;47.454;18.966;2023-03-04T04:30:29;100144.77;;;2.81;56.21
77572;BME280;67214;47.454;18.966;2023-03-04T04:32:57;100129.78;;;2.85;56.33
77572;BME280;67214;47.454;18.966;2023-03-04T04:35:27;100136.17;;;2.88;56.46
77572;BME280;67214;47.454;18.966;2023-03-04T04:37:54;100138.39;;;2.87;56.81
77572;BME280;67214;47.454;18.966;2023-03-04T04:40:22;100129.52;;;2.90;57.12
77572;BME280;67214;47.454;18.966;2023-03-04T04:42:50;100119.83;;;2.83;57.41
77572;BME280;67214;47.454;18.966;2023-03-04T04:45:17;100125.98;;;2.91;57.43
77572;BME280;67214;47.454;18.966;2023-03-04T04:47:45;100135.71;;;2.89;57.71
77572;BME280;67214;47.454;18.966;2023-03-04T04:50:12;100134.47;;;2.87;57.63
77572;BME280;67214;47.454;18.966;2023-03-04T04:52:40;100127.16;;;2.85;57.64
77572;BME280;67214;47.454;18.966;2023-03-04T04:55:08;100130.31;;;2.92;57.48
77572;BME280;67214;47.454;18.966;2023-03-04T04:57:36;100132.30;;;2.87;57.89
77572;BME280;67214;47.454;18.966;2023-03-04T05:00:05;100112.89;;;2.82;57.97
77572;BME280;67214;47.454;18.966;2023-03-04T05:02:33;100123.15;;;2.95;57.66
77572;BME280;67214;47.454;18.966;2023-03-04T05:05:04;100124.52;;;2.94;57.72
77572;BME280;67214;47.454;18.966;2023-03-04T05:07:32;100140.72;;;2.85;58.34
77572;BME280;67214;47.454;18.966;2023-03-04T05:10:00;100116.37;;;2.91;58.13
77572;BME280;67214;47.454;18.966;2023-03-04T05:12:27;100119.28;;;2.94;58.11
77572;BME280;67214;47.454;18.966;2023-03-04T05:14:55;100138.11;;;2.93;58.06
77572;BME280;67214;47.454;18.966;2023-03-04T05:17:22;100135.02;;;2.85;58.33
77572;BME280;67214;47.454;18.966;2023-03-04T05:19:50;100138.85;;;2.87;58.50
77572;BME280;67214;47.454;18.966;2023-03-04T05:22:17;100137.47;;;2.79;58.63
77572;BME280;67214;47.454;18.966;2023-03-04T05:24:45;100151.95;;;2.87;58.34
77572;BME280;67214;47.454;18.966;2023-03-04T05:27:12;100146.02;;;2.83;58.65
77572;BME280;67214;47.454;18.966;2023-03-04T05:29:39;100144.25;;;2.84;58.56
77572;BME280;67214;47.454;18.966;2023-03-04T05:32:09;100153.35;;;2.85;58.52
77572;BME280;67214;47.454;18.966;2023-03-04T05:34:36;100150.64;;;2.87;58.57
77572;BME280;67214;47.454;18.966;2023-03-04T05:37:04;100160.27;;;2.86;58.48
77572;BME280;67214;47.454;18.966;2023-03-04T05:39:31;100150.81;;;2.92;58.38
77572;BME280;67214;47.454;18.966;2023-03-04T05:41:59;100143.80;;;2.93;58.17
77572;BME280;67214;47.454;18.966;2023-03-04T05:44:26;100155.66;;;3.00;58.11
77572;BME280;67214;47.454;18.966;2023-03-04T05:46:53;100164.52;;;3.06;57.99
77572;BME280;67214;47.454;18.966;2023-03-04T05:49:21;100163.44;;;3.10;57.47
77572;BME280;67214;47.454;18.966;2023-03-04T05:51:48;100153.20;;;2.97;58.20
77572;BME280;67214;47.454;18.966;2023-03-04T05:54:16;100163.69;;;3.05;57.83
77572;BME280;67214;47.454;18.966;2023-03-04T05:56:43;100168.84;;;3.07;57.23
77572;BME280;67214;47.454;18.966;2023-03-04T05:59:11;100163.54;;;3.17;57.23
77572;BME280;67214;47.454;18.966;2023-03-04T06:01:39;100172.78;;;3.24;56.36
77572;BME280;67214;47.454;18.966;2023-03-04T06:04:06;100168.16;;;3.29;56.24
77572;BME280;67214;47.454;18.966;2023-03-04T06:06:34;100176.88;;;3.30;56.25
77572;BME280;67214;47.454;18.966;2023-03-04T06:09:01;100169.63;;;3.26;56.49
77572;BME280;67214;47.454;18.966;2023-03-04T06:11:29;100186.73;;;3.24;56.89
77572;BME280;67214;47.454;18.966;2023-03-04T06:13:56;100186.51;;;3.29;56.69
77572;BME280;67214;47.454;18.966;2023-03-04T06:16:24;100184.80;;;3.28;56.73
77572;BME280;67214;47.454;18.966;2023-03-04T06:18:51;100190.34;;;3.39;57.06
77572;BME280;67214;47.454;18.966;2023-03-04T06:21:19;100190.90;;;3.46;56.75
77572;BME280;67214;47.454;18.966;2023-03-04T06:23:46;100191.66;;;3.48;56.67
77572;BME280;67214;47.454;18.966;2023-03-04T06:26:13;100191.75;;;3.46;56.42
77572;BME280;67214;47.454;18.966;2023-03-04T06:28:42;100193.13;;;3.62;56.58
77572;BME280;67214;47.454;18.966;2023-03-04T06:31:10;100196.05;;;3.56;56.28
77572;BME280;67214;47.454;18.966;2023-03-04T06:33:37;100195.42;;;3.59;56.58
77572;BME280;67214;47.454;18.966;2023-03-04T06:36:05;100199.34;;;3.77;56.72
77572;BME280;67214;47.454;18.966;2023-03-04T06:38:33;100210.28;;;3.76;56.85
77572;BME280;67214;47.454;18.966;2023-03-04T06:41:08;100204.29;;;3.74;56.84
77572;BME280;67214;47.454;18.966;2023-03-04T06:43:37;100210.20;;;3.86;56.70
77572;BME280;67214;47.454;18.966;2023-03-04T06:46:06;100210.11;;;3.88;56.36
77572;BME280;67214;47.454;18.966;2023-03-04T06:48:35;100212.89;;;3.93;56.50
77572;BME280;67214;47.454;18.966;2023-03-04T06:51:09;100208.80;;;3.88;56.55
77572;BME280;67214;47.454;18.966;2023-03-04T06:53:38;100209.16;;;4.06;56.68
77572;BME280;67214;47.454;18.966;2023-03-04T06:56:07;100203.00;;;3.98;56.84
77572;BME280;67214;47.454;18.966;2023-03-04T06:58:35;100203.75;;;4.00;57.11
77572;BME280;67214;47.454;18.966;2023-03-04T07:01:21;100197.63;;;4.08;56.94
77572;BME280;67214;47.454;18.966;2023-03-04T07:03:48;100199.99;;;4.21;56.72
77572;BME280;67214;47.454;18.966;2023-03-04T07:06:20;100200.94;;;4.12;56.82
77572;BME280;67214;47.454;18.966;2023-03-04T07:08:47;100191.16;;;4.15;56.76
77572;BME280;67214;47.454;18.966;2023-03-04T07:11:15;100188.36;;;4.18;56.65
77572;BME280;67214;47.454;18.966;2023-03-04T07:13:44;100193.67;;;4.17;56.37
77572;BME280;67214;47.454;18.966;2023-03-04T07:16:13;100197.31;;;4.39;56.55
77572;BME280;67214;47.454;18.966;2023-03-04T07:18:41;100190.92;;;4.36;56.02
77572;BME280;67214;47.454;18.966;2023-03-04T07:21:10;100189.01;;;4.31;55.97
77572;BME280;67214;47.454;18.966;2023-03-04T07:23:39;100179.92;;;4.36;56.14
77572;BME280;67214;47.454;18.966;2023-03-04T07:26:07;100191.59;;;4.39;56.20
77572;BME280;67214;47.454;18.966;2023-03-04T07:28:35;100185.17;;;4.60;55.93
77572;BME280;67214;47.454;18.966;2023-03-04T07:31:18;100199.01;;;4.71;55.35
77572;BME280;67214;47.454;18.966;2023-03-04T07:33:39;100193.98;;;4.82;55.26
77572;BME280;67214;47.454;18.966;2023-03-04T07:36:07;100192.72;;;5.12;54.30
77572;BME280;67214;47.454;18.966;2023-03-04T07:38:34;100197.09;;;5.34;53.82
77572;BME280;67214;47.454;18.966;2023-03-04T07:41:02;100182.48;;;5.37;51.33
77572;BME280;67214;47.454;18.966;2023-03-04T07:43:29;100190.30;;;5.53;50.58
77572;BME280;67214;47.454;18.966;2023-03-04T07:45:59;100179.33;;;5.60;50.06
77572;BME280;67214;47.454;18.966;2023-03-04T07:48:27;100189.19;;;5.64;48.67
77572;BME280;67214;47.454;18.966;2023-03-04T07:51:12;100183.39;;;5.73;48.98
77572;BME280;67214;47.454;18.966;2023-03-04T07:53:41;100179.05;;;5.79;49.11
77572;BME280;67214;47.454;18.966;2023-03-04T07:56:12;100161.73;;;5.91;48.42
77572;BME280;67214;47.454;18.966;2023-03-04T07:58:40;100164.72;;;6.06;49.45
77572;BME280;67214;47.454;18.966;2023-03-04T08:01:31;100169.51;;;5.92;48.00
77572;BME280;67214;47.454;18.966;2023-03-04T08:03:38;100183.89;;;6.08;48.46
77572;BME280;67214;47.454;18.966;2023-03-04T08:06:11;100176.64;;;6.12;47.32
77572;BME280;67214;47.454;18.966;2023-03-04T08:08:39;100167.06;;;6.18;46.41
77572;BME280;67214;47.454;18.966;2023-03-04T08:11:15;100175.13;;;6.29;46.58
77572;BME280;67214;47.454;18.966;2023-03-04T08:13:39;100170.16;;;6.31;46.10
77572;BME280;67214;47.454;18.966;2023-03-04T08:16:07;100160.92;;;6.38;45.88
77572;BME280;67214;47.454;18.966;2023-03-04T08:18:34;100177.38;;;6.42;45.79
77572;BME280;67214;47.454;18.966;2023-03-04T08:21:02;100171.35;;;6.47;46.14
77572;BME280;67214;47.454;18.966;2023-03-04T08:23:31;100158.13;;;6.61;45.96
77572;BME280;67214;47.454;18.966;2023-03-04T08:25:58;100153.50;;;6.72;45.90
77572;BME280;67214;47.454;18.966;2023-03-04T08:28:26;100153.21;;;6.76;45.95
77572;BME280;67214;47.454;18.966;2023-03-04T08:30:54;100136.94;;;6.89;46.42
77572;BME280;67214;47.454;18.966;2023-03-04T08:33:22;100154.75;;;6.86;46.94
77572;BME280;67214;47.454;18.966;2023-03-04T08:35:49;100150.54;;;6.83;47.35
77572;BME280;67214;47.454;18.966;2023-03-04T08:38:16;100148.92;;;6.88;47.32
77572;BME280;67214;47.454;18.966;2023-03-04T08:40:44;100143.14;;;6.76;47.99
77572;BME280;67214;47.454;18.966;2023-03-04T08:43:11;100148.93;;;6.81;48.07
77572;BME280;67214;47.454;18.966;2023-03-04T08:45:39;100133.07;;;6.95;48.26
77572;BME280;67214;47.454;18.966;2023-03-04T08:48:06;100129.45;;;7.03;48.05
77572;BME280;67214;47.454;18.966;2023-03-04T08:50:35;100135.02;;;7.18;47.79
77572;BME280;67214;47.454;18.966;2023-03-04T08:53:02;100132.59;;;7.15;47.57
77572;BME280;67214;47.454;18.966;2023-03-04T08:55:30;100134.52;;;7.38;47.60
77572;BME280;67214;47.454;18.966;2023-03-04T08:57:57;100134.01;;;7.33;47.45
77572;BME280;67214;47.454;18.966;2023-03-04T09:00:25;100144.91;;;7.34;47.31
77572;BME280;67214;47.454;18.966;2023-03-04T09:02:52;100127.58;;;7.37;47.41
77572;BME280;67214;47.454;18.966;2023-03-04T09:05:21;100125.73;;;7.45;47.62
77572;BME280;67214;47.454;18.966;2023-03-04T09:07:48;100122.25;;;7.57;47.61
77572;BME280;67214;47.454;18.966;2023-03-04T09:10:16;100142.52;;;7.69;46.77
77572;BME280;67214;47.454;18.966;2023-03-04T09:12:43;100137.17;;;7.51;46.22
77572;BME280;67214;47.454;18.966;2023-03-04T09:15:12;100146.67;;;7.41;46.54
77572;BME280;67214;47.454;18.966;2023-03-04T09:17:40;100134.98;;;7.58;46.81
77572;BME280;67214;47.454;18.966;2023-03-04T09:20:09;100133.53;;;7.59;46.62
77572;BME280;67214;47.454;18.966;2023-03-04T09:22:37;100128.85;;;7.70;46.54
77572;BME280;67214;47.454;18.966;2023-03-04T09:25:06;100123.41;;;7.78;46.66
77572;BME280;67214;47.454;18.966;2023-03-04T09:27:34;100133.73;;;8.07;46.20
77572;BME280;67214;47.454;18.966;2023-03-04T09:30:01;100140.38;;;8.00;46.47
77572;BME280;67214;47.454;18.966;2023-03-04T09:32:29;100126.67;;;7.94;46.31
77572;BME280;67214;47.454;18.966;2023-03-04T09:34:56;100125.67;;;7.90;46.26
77572;BME280;67214;47.454;18.966;2023-03-04T09:37:24;100145.50;;;7.95;46.10
77572;BME280;67214;47.454;18.966;2023-03-04T09:39:51;100124.22;;;7.91;47.10
77572;BME280;67214;47.454;18.966;2023-03-04T09:42:28;100104.30;;;8.24;46.15
77572;BME280;67214;47.454;18.966;2023-03-04T09:44:56;100118.53;;;8.16;46.20
77572;BME280;67214;47.454;18.966;2023-03-04T09:47:25;100118.91;;;8.17;46.28
77572;BME280;67214;47.454;18.966;2023-03-04T09:50:01;100114.48;;;8.35;45.66
77572;BME280;67214;47.454;18.966;2023-03-04T09:55:23;100119.82;;;8.28;46.06
77572;BME280;67214;47.454;18.966;2023-03-04T10:00:46;100115.86;;;8.41;45.62
77572;BME280;67214;47.454;18.966;2023-03-04T10:03:19;100120.54;;;8.61;45.66
77572;BME280;67214;47.454;18.966;2023-03-04T10:05:57;100097.83;;;8.64;45.66
77572;BME280;67214;47.454;18.966;2023-03-04T10:11:02;100114.49;;;8.77;45.32
77572;BME280;67214;47.454;18.966;2023-03-04T10:16:11;100104.42;;;8.82;45.22
77572;BME280;67214;47.454;18.966;2023-03-04T10:18:43;100096.72;;;9.14;45.50
77572;BME280;67214;47.454;18.966;2023-03-04T10:23:52;100093.67;;;8.73;45.88
77572;BME280;67214;47.454;18.966;2023-03-04T10:26:21;100093.52;;;8.93;45.38
77572;BME280;67214;47.454;18.966;2023-03-04T10:28:49;100091.22;;;9.23;45.73
77572;BME280;67214;47.454;18.966;2023-03-04T10:33:50;100093.59;;;9.15;44.94
77572;BME280;67214;47.454;18.966;2023-03-04T10:41:36;100082.59;;;9.43;44.53
77572;BME280;67214;47.454;18.966;2023-03-04T10:46:39;100074.63;;;9.38;44.69
77572;BME280;67214;47.454;18.966;2023-03-04T10:49:09;100083.46;;;9.71;44.20
77572;BME280;67214;47.454;18.966;2023-03-04T10:51:43;100078.85;;;9.46;43.48
77572;BME280;67214;47.454;18.966;2023-03-04T10:54:25;100075.15;;;9.59;44.65
77572;BME280;67214;47.454;18.966;2023-03-04T10:56:58;100069.99;;;9.69;43.18
77572;BME280;67214;47.454;18.966;2023-03-04T11:02:18;100062.89;;;9.86;42.17
77572;BME280;67214;47.454;18.966;2023-03-04T11:04:50;100060.60;;;9.65;43.02
77572;BME280;67214;47.454;18.966;2023-03-04T11:07:20;100062.03;;;9.74;42.82
77572;BME280;67214;47.454;18.966;2023-03-04T11:09:48;100044.05;;;10.11;42.66
77572;BME280;67214;47.454;18.966;2023-03-04T11:12:31;100048.90;;;10.01;41.55
77572;BME280;67214;47.454;18.966;2023-03-04T11:14:48;100053.83;;;10.05;41.47
77572;BME280;67214;47.454;18.966;2023-03-04T11:17:26;100041.44;;;10.17;41.37
77572;BME280;67214;47.454;18.966;2023-03-04T11:20:00;100047.69;;;10.05;41.73
77572;BME280;67214;47.454;18.966;2023-03-04T11:22:29;100042.72;;;10.34;40.70
77572;BME280;67214;47.454;18.966;2023-03-04T11:25:06;100044.70;;;10.52;40.26
77572;BME280;67214;47.454;18.966;2023-03-04T11:30:25;100020.77;;;10.69;39.52
77572;BME280;67214;47.454;18.966;2023-03-04T11:32:52;100009.77;;;11.00;38.99
77572;BME280;67214;47.454;18.966;2023-03-04T11:35:37;100012.63;;;10.82;39.51
77572;BME280;67214;47.454;18.966;2023-03-04T11:38:20;100029.00;;;10.60;38.98
77572;BME280;67214;47.454;18.966;2023-03-04T11:40:56;100016.37;;;10.58;39.38
77572;BME280;67214;47.454;18.966;2023-03-04T11:51:51;100002.48;;;11.07;39.66
77572;BME280;67214;47.454;18.966;2023-03-04T11:56:59;99993.02;;;11.14;39.40
77572;BME280;67214;47.454;18.966;2023-03-04T11:59:49;99992.86;;;10.80;39.95
77572;BME280;67214;47.454;18.966;2023-03-04T12:02:22;99993.14;;;10.92;40.12
77572;BME280;67214;47.454;18.966;2023-03-04T12:16:24;99965.54;;;11.25;39.96
77572;BME280;67214;47.454;18.966;2023-03-04T12:18:56;99960.05;;;11.17;41.35
77572;BME280;67214;47.454;18.966;2023-03-04T12:24:14;99971.02;;;11.03;40.77
77572;BME280;67214;47.454;18.966;2023-03-04T12:26:48;99963.52;;;11.08;40.79
77572;BME280;67214;47.454;18.966;2023-03-04T12:37:36;99946.94;;;11.95;38.89
77572;BME280;67214;47.454;18.966;2023-03-04T12:40:05;99938.09;;;11.76;39.14
77572;BME280;67214;47.454;18.966;2023-03-04T12:45:31;99931.02;;;12.53;38.24
77572;BME280;67214;47.454;18.966;2023-03-04T12:50:54;99917.45;;;12.46;38.34
77572;BME280;67214;47.454;18.966;2023-03-04T12:56:04;99911.16;;;12.09;38.35
77572;BME280;67214;47.454;18.966;2023-03-04T12:58:33;99926.02;;;11.77;38.91
77572;BME280;67214;47.454;18.966;2023-03-04T13:01:26;99925.09;;;11.82;39.68
77572;BME280;67214;47.454;18.966;2023-03-04T13:09:08;99921.84;;;12.94;37.50
77572;BME280;67214;47.454;18.966;2023-03-04T13:14:25;99882.83;;;14.51;35.56
77572;BME280;67214;47.454;18.966;2023-03-04T13:16:56;99874.99;;;15.01;34.54
77572;BME280;67214;47.454;18.966;2023-03-04T13:36:06;99858.62;;;15.34;31.51
77572;BME280;67214;47.454;18.966;2023-03-04T13:38:36;99848.31;;;16.17;31.30
77572;BME280;67214;47.454;18.966;2023-03-04T13:41:15;99842.95;;;16.01;30.37
77572;BME280;67214;47.454;18.966;2023-03-04T13:43:57;99835.08;;;15.92;29.83
77572;BME280;67214;47.454;18.966;2023-03-04T13:46:27;99828.38;;;16.68;28.26
77572;BME280;67214;47.454;18.966;2023-03-04T13:48:59;99825.59;;;17.79;27.81
77572;BME280;67214;47.454;18.966;2023-03-04T13:51:39;99819.25;;;19.07;25.81
77572;BME280;67214;47.454;18.966;2023-03-04T13:59:37;99819.73;;;17.05;27.83
77572;BME280;67214;47.454;18.966;2023-03-04T14:02:13;99810.34;;;16.42;27.59
77572;BME280;67214;47.454;18.966;2023-03-04T14:04:57;99808.71;;;16.96;27.71
77572;BME280;67214;47.454;18.966;2023-03-04T14:07:30;99803.53;;;16.99;26.88
77572;BME280;67214;47.454;18.966;2023-03-04T14:12:48;99799.27;;;16.49;27.07
77572;BME280;67214;47.454;18.966;2023-03-04T14:17:47;99796.42;;;15.66;27.67
77572;BME280;67214;47.454;18.966;2023-03-04T14:20:27;99788.92;;;16.10;27.88
77572;BME280;67214;47.454;18.966;2023-03-04T14:22:56;99793.78;;;15.98;28.37
77572;BME280;67214;47.454;18.966;2023-03-04T14:25:27;99798.45;;;15.72;27.95
77572;BME280;67214;47.454;18.966;2023-03-04T14:30:31;99797.97;;;15.89;27.78
77572;BME280;67214;47.454;18.966;2023-03-04T14:32:59;99800.64;;;15.80;27.44
77572;BME280;67214;47.454;18.966;2023-03-04T14:35:29;99815.50;;;15.79;27.28
77572;BME280;67214;47.454;18.966;2023-03-04T14:40:49;99815.89;;;15.42;28.19
77572;BME280;67214;47.454;18.966;2023-03-04T14:43:21;99804.32;;;16.12;27.23
77572;BME280;67214;47.454;18.966;2023-03-04T14:45:51;99806.12;;;15.63;27.94
77572;BME280;67214;47.454;18.966;2023-03-04T14:50:54;99815.92;;;13.87;30.22
77572;BME280;67214;47.454;18.966;2023-03-04T14:53:24;99818.20;;;13.33;30.93
77572;BME280;67214;47.454;18.966;2023-03-04T14:56:06;99830.74;;;13.23;31.26
77572;BME280;67214;47.454;18.966;2023-03-04T14:58:51;99831.69;;;12.72;32.21